Time;durP1;ratioP1;P1;durP2;ratioP2;P2;SDS_P1;SDS_P2;PMS_P1;PMS_P2;Temp;Humidity;BMP_temperature;BMP_pressure;BME280_temperature;BME280_humidity;BME280_pressure;Samples;Min_cycle;Max_cycle;Signal;HPM_P1;HPM_P2
2023/01/24 00:01:36;;;;;;;18.95;9.90;;;3.20;99.90;;;;;;7407744;19;20262;-72
2023/01/24 00:04:04;;;;;;;16.75;8.20;;;3.10;99.90;;;;;;7410616;19;19914;-72
2023/01/24 00:06:33;;;;;;;17.70;8.60;;;3.00;99.90;;;;;;7412528;19;20081;-71
2023/01/24 00:09:02;;;;;;;18.05;8.98;;;4.10;99.90;;;;;;7405822;19;19918;-72
2023/01/24 00:11:34;;;;;;;16.77;9.48;;;4.00;99.90;;;;;;7406319;19;19922;-72
2023/01/24 00:14:03;;;;;;;17.83;8.88;;;3.10;99.90;;;;;;7404805;19;19915;-72
2023/01/24 00:16:32;;;;;;;17.17;8.40;;;3.20;99.90;;;;;;7407183;19;19926;-72
2023/01/24 00:19:01;;;;;;;15.35;9.20;;;3.10;99.90;;;;;;7407477;19;19925;-72
2023/01/24 00:21:30;;;;;;;15.10;8.23;;;3.90;99.90;;;;;;7404443;19;20353;-72
2023/01/24 00:23:59;;;;;;;17.90;8.75;;;3.10;99.90;;;;;;7402905;19;19915;-72
2023/01/24 00:26:28;;;;;;;15.35;8.50;;;3.00;99.90;;;;;;7408893;19;20401;-72
2023/01/24 00:29:00;;;;;;;17.80;9.20;;;3.60;99.90;;;;;;7404866;19;20301;-72
2023/01/24 00:31:29;;;;;;;18.25;9.73;;;3.10;99.90;;;;;;7409122;19;19922;-72
2023/01/24 00:33:58;;;;;;;16.95;8.95;;;3.70;99.90;;;;;;7403718;19;19929;-72
2023/01/24 00:36:27;;;;;;;19.63;8.95;;;3.80;99.90;;;;;;7407554;19;19914;-72
2023/01/24 00:38:56;;;;;;;18.63;8.93;;;3.80;99.90;;;;;;7406490;19;19923;-72
2023/01/24 00:41:25;;;;;;;18.73;9.30;;;3.30;99.90;;;;;;7404414;19;19914;-71
2023/01/24 00:43:54;;;;;;;22.40;10.25;;;3.00;99.90;;;;;;7403067;19;20002;-72
2023/01/24 00:46:25;;;;;;;20.27;9.80;;;3.60;99.90;;;;;;7406118;19;20260;-72
2023/01/24 00:48:54;;;;;;;20.92;10.10;;;2.50;99.90;;;;;;7403323;19;19937;-72
2023/01/24 00:51:23;;;;;;;19.30;9.30;;;4.00;99.90;;;;;;7405425;19;19929;-72
2023/01/24 00:53:52;;;;;;;18.70;9.20;;;2.90;99.90;;;;;;7407100;19;19919;-72
2023/01/24 00:56:21;;;;;;;20.48;9.88;;;3.00;99.90;;;;;;7405813;19;19926;-72
2023/01/24 00:58:50;;;;;;;20.23;10.25;;;4.20;99.90;;;;;;7403796;19;20329;-73
2023/01/24 01:01:19;;;;;;;18.10;9.07;;;3.10;99.90;;;;;;7406177;19;20340;-72
2023/01/24 01:03:50;;;;;;;18.40;9.85;;;3.20;99.90;;;;;;7403323;19;19942;-73
2023/01/24 01:06:19;;;;;;;18.33;9.23;;;3.10;99.90;;;;;;7406058;19;20264;-72
2023/01/24 01:08:48;;;;;;;17.65;9.90;;;3.00;99.90;;;;;;7404680;19;19924;-73
2023/01/24 01:11:17;;;;;;;19.20;10.15;;;3.40;99.90;;;;;;7403305;19;19966;-73
2023/01/24 01:13:47;;;;;;;23.67;9.77;;;3.10;99.90;;;;;;7404283;19;19937;-73
2023/01/24 01:16:19;;;;;;;17.52;9.23;;;2.60;99.90;;;;;;7405161;19;20401;-73
2023/01/24 01:18:51;;;;;;;18.40;9.90;;;3.30;99.90;;;;;;7403362;19;19922;-73
2023/01/24 01:21:21;;;;;;;18.05;9.40;;;3.10;99.90;;;;;;7402922;19;19922;-72
2023/01/24 01:23:50;;;;;;;19.00;8.73;;;3.90;99.90;;;;;;7401693;19;19936;-73
2023/01/24 01:26:23;;;;;;;20.50;10.68;;;3.90;99.90;;;;;;7403063;19;19914;-72
2023/01/24 01:28:52;;;;;;;19.13;8.93;;;3.00;99.90;;;;;;7403290;19;19989;-72
2023/01/24 01:31:21;;;;;;;20.52;10.38;;;3.20;99.90;;;;;;7406537;19;19922;-72
2023/01/24 01:33:52;;;;;;;17.83;8.88;;;3.90;99.90;;;;;;7401766;19;19922;-73
2023/01/24 01:36:21;;;;;;;19.33;9.45;;;2.90;99.90;;;;;;7402580;19;19926;-72
2023/01/24 01:38:50;;;;;;;19.60;9.82;;;3.20;99.90;;;;;;7402443;19;19933;-71
2023/01/24 01:41:19;;;;;;;19.15;9.93;;;3.10;99.90;;;;;;7402063;19;19921;-72
2023/01/24 01:46:31;;;;;;;18.55;9.52;;;3.00;99.90;;;;;;7402141;19;19930;-72
2023/01/24 01:49:05;;;;;;;17.00;9.00;;;3.10;99.90;;;;;;7404626;19;19922;-72
2023/01/24 01:51:41;;;;;;;22.10;10.07;;;4.00;99.90;;;;;;7404346;19;19929;-72
2023/01/24 01:54:13;;;;;;;20.10;10.27;;;3.70;99.90;;;;;;7403517;19;19927;-72
2023/01/24 01:56:46;;;;;;;17.58;10.07;;;3.10;99.90;;;;;;7401971;19;19921;-72
2023/01/24 01:59:20;;;;;;;18.63;10.18;;;2.20;99.90;;;;;;7410022;19;20248;-72
2023/01/24 02:01:50;;;;;;;20.50;8.75;;;3.20;99.90;;;;;;7412095;19;19914;-72
2023/01/24 02:04:25;;;;;;;17.83;9.73;;;3.70;99.90;;;;;;7407788;19;19915;-72
2023/01/24 02:06:58;;;;;;;20.02;10.15;;;3.10;99.90;;;;;;7408566;19;19914;-72
2023/01/24 02:09:34;;;;;;;16.88;8.60;;;3.00;99.90;;;;;;7410127;19;19933;-72
2023/01/24 02:12:06;;;;;;;21.05;10.02;;;3.10;99.90;;;;;;7408405;19;19918;-72
2023/01/24 02:17:19;;;;;;;22.75;10.07;;;2.40;99.90;;;;;;7408146;19;19919;-72
2023/01/24 02:20:11;;;;;;;20.50;11.18;;;3.10;99.90;;;;;;7408369;19;19951;-72
2023/01/24 02:22:47;;;;;;;18.67;9.68;;;3.10;99.90;;;;;;7408175;19;19919;-73
2023/01/24 02:25:23;;;;;;;20.20;9.63;;;3.50;99.90;;;;;;7411032;19;19933;-72
2023/01/24 02:27:58;;;;;;;18.38;9.63;;;4.20;99.90;;;;;;7408242;19;19923;-73
2023/01/24 02:30:27;;;;;;;15.00;8.60;;;3.10;99.90;;;;;;7409538;19;19926;-72
2023/01/24 02:32:56;;;;;;;19.08;9.38;;;2.90;99.90;;;;;;7405331;19;19934;-73
2023/01/24 02:35:27;;;;;;;21.23;9.98;;;3.00;99.90;;;;;;7410235;19;19929;-73
2023/01/24 02:37:56;;;;;;;18.83;9.52;;;3.20;99.90;;;;;;7411238;19;19915;-72
2023/01/24 02:40:26;;;;;;;19.05;9.40;;;3.10;99.90;;;;;;7416155;19;20361;-72
2023/01/24 02:43:02;;;;;;;17.83;9.85;;;3.00;99.90;;;;;;7410446;19;19929;-72
2023/01/24 02:45:34;;;;;;;17.27;9.20;;;3.60;99.90;;;;;;7408984;19;20021;-73
2023/01/24 02:48:04;;;;;;;21.08;9.82;;;3.10;99.90;;;;;;7406882;19;19922;-73
2023/01/24 02:53:29;;;;;;;18.67;9.15;;;3.10;99.90;;;;;;7407908;19;19925;-73
2023/01/24 02:53:31;;;;;;;18.60;9.75;;;3.00;99.90;;;;;;7406991;19;19919;-73
2023/01/24 02:58:45;;;;;;;18.38;9.43;;;3.90;99.90;;;;;;7410081;19;20010;-72
2023/01/24 03:01:16;;;;;;;19.08;9.70;;;3.20;99.90;;;;;;7406888;19;19922;-72
2023/01/24 03:03:45;;;;;;;16.92;9.23;;;2.70;99.90;;;;;;7405806;19;19954;-72
2023/01/24 03:06:15;;;;;;;19.77;9.60;;;3.00;99.90;;;;;;7409951;19;19919;-72
2023/01/24 03:08:45;;;;;;;18.33;9.70;;;2.20;99.90;;;;;;7406698;19;19925;-72
2023/01/24 03:11:15;;;;;;;18.70;9.55;;;3.10;99.90;;;;;;7406991;19;19925;-73
2023/01/24 03:35:21;;;;;;;16.80;8.90;;;3.80;99.90;;;;;;7410382;19;19941;-73
2023/01/24 03:40:31;;;;;;;18.13;9.40;;;2.70;99.90;;;;;;7406403;19;19926;-72
2023/01/24 03:43:01;;;;;;;17.20;9.43;;;3.00;99.90;;;;;;7407608;19;19922;-74
2023/01/24 03:45:34;;;;;;;18.63;8.90;;;3.10;99.90;;;;;;7408020;19;19910;-73
2023/01/24 03:48:12;;;;;;;17.63;8.27;;;2.30;99.90;;;;;;7405929;19;19915;-73
2023/01/24 03:53:26;;;;;;;17.02;8.68;;;3.10;99.90;;;;;;7404934;19;19918;-73
2023/01/24 03:55:56;;;;;;;15.05;8.20;;;3.10;99.90;;;;;;7405357;19;19910;-73
2023/01/24 03:58:25;;;;;;;15.63;8.35;;;3.00;99.90;;;;;;7405231;19;20265;-73
2023/01/24 04:00:57;;;;;;;14.25;7.55;;;3.20;99.90;;;;;;7406439;19;19929;-73
2023/01/24 04:03:27;;;;;;;12.55;7.18;;;3.10;99.90;;;;;;7404168;19;20276;-73
2023/01/24 04:05:56;;;;;;;13.07;7.07;;;2.30;99.90;;;;;;7405578;19;19919;-73
2023/01/24 04:08:24;;;;;;;13.63;7.40;;;3.10;99.90;;;;;;7408274;19;19919;-73
2023/01/24 04:10:53;;;;;;;14.15;7.50;;;2.90;99.90;;;;;;7405281;19;20260;-73
2023/01/24 04:13:22;;;;;;;14.63;7.22;;;3.00;99.90;;;;;;7405131;19;19921;-73
2023/01/24 04:15:51;;;;;;;15.07;7.30;;;3.10;99.90;;;;;;7408106;19;20329;-73
2023/01/24 04:18:23;;;;;;;14.70;8.00;;;3.00;99.90;;;;;;7405495;19;19925;-73
2023/01/24 04:20:51;;;;;;;13.45;7.88;;;3.00;99.90;;;;;;7403430;19;19929;-73
2023/01/24 04:23:20;;;;;;;11.65;7.13;;;3.20;99.90;;;;;;7403456;19;19918;-73
2023/01/24 04:25:56;;;;;;;14.18;7.88;;;3.20;99.90;;;;;;7404772;19;19929;-74
2023/01/24 04:28:25;;;;;;;14.90;8.45;;;3.20;99.90;;;;;;7404922;19;19925;-73
2023/01/24 04:31:00;;;;;;;12.98;7.22;;;3.10;99.90;;;;;;7408088;19;19929;-73
2023/01/24 04:33:31;;;;;;;13.55;7.45;;;3.20;99.90;;;;;;7405235;19;19918;-73
2023/01/24 04:36:01;;;;;;;19.27;8.52;;;3.50;99.90;;;;;;7404481;19;20350;-73
2023/01/24 04:38:29;;;;;;;13.48;8.02;;;3.90;99.90;;;;;;7404842;19;19922;-73
2023/01/24 04:41:02;;;;;;;16.48;9.05;;;4.30;99.90;;;;;;7404705;19;19914;-73
2023/01/24 04:43:31;;;;;;;15.48;8.48;;;3.20;99.90;;;;;;7404989;19;19926;-73
2023/01/24 04:46:01;;;;;;;17.85;8.52;;;3.10;99.90;;;;;;7408597;19;19918;-73
2023/01/24 04:48:33;;;;;;;15.50;8.05;;;2.50;99.90;;;;;;7404116;19;19926;-73
2023/01/24 04:51:02;;;;;;;13.18;8.02;;;3.40;99.90;;;;;;7404884;19;19919;-73
2023/01/24 04:53:33;;;;;;;15.48;8.23;;;3.90;99.90;;;;;;7406718;19;19944;-73
2023/01/24 04:56:03;;;;;;;13.63;8.15;;;3.10;99.90;;;;;;7406587;19;19914;-73
2023/01/24 04:58:32;;;;;;;14.80;7.47;;;2.90;99.90;;;;;;7403903;19;20353;-73
2023/01/24 05:01:02;;;;;;;12.05;7.82;;;3.10;99.90;;;;;;7403872;19;20339;-73
2023/01/24 05:03:33;;;;;;;14.27;7.63;;;3.10;99.90;;;;;;7402739;19;19933;-73
2023/01/24 05:06:02;;;;;;;17.77;8.40;;;3.10;99.90;;;;;;7404781;19;19918;-72
2023/01/24 05:08:31;;;;;;;14.70;7.78;;;3.00;99.90;;;;;;7404436;19;19943;-73
2023/01/24 05:11:03;;;;;;;14.95;7.95;;;3.10;99.90;;;;;;7404374;19;20000;-72
2023/01/24 05:13:32;;;;;;;13.30;7.43;;;3.80;99.90;;;;;;7410470;19;19927;-73
2023/01/24 05:16:01;;;;;;;17.48;8.45;;;3.00;99.90;;;;;;7414714;19;19918;-73
2023/01/24 05:18:32;;;;;;;14.60;7.93;;;3.00;99.90;;;;;;7406093;19;19922;-73
2023/01/24 05:21:08;;;;;;;14.90;8.63;;;3.10;99.90;;;;;;7404139;19;19957;-73
2023/01/24 05:23:37;;;;;;;16.10;8.55;;;3.10;99.90;;;;;;7401324;19;19922;-73
2023/01/24 05:26:07;;;;;;;13.55;7.95;;;3.60;99.90;;;;;;7402820;19;19925;-72
2023/01/24 05:28:36;;;;;;;12.23;7.60;;;3.00;99.90;;;;;;7403793;19;20316;-73
2023/01/24 05:31:08;;;;;;;12.40;6.93;;;4.00;99.90;;;;;;7405858;19;19922;-73
2023/01/24 05:33:40;;;;;;;11.77;6.85;;;3.20;99.90;;;;;;7401918;19;20267;-73
2023/01/24 05:36:11;;;;;;;14.27;6.60;;;3.20;99.90;;;;;;7402943;19;19914;-73
2023/01/24 05:38:40;;;;;;;11.35;6.70;;;3.70;99.90;;;;;;7403416;19;19918;-72
2023/01/24 05:41:11;;;;;;;11.13;6.03;;;3.10;99.90;;;;;;7403119;19;19920;-74
2023/01/24 05:43:41;;;;;;;10.82;5.88;;;3.10;99.90;;;;;;7402455;19;19910;-73
2023/01/24 05:46:12;;;;;;;11.00;6.50;;;3.20;99.90;;;;;;7405135;19;19929;-73
2023/01/24 05:48:44;;;;;;;11.07;6.47;;;3.20;99.90;;;;;;7402482;19;19978;-73
2023/01/24 05:51:16;;;;;;;10.38;5.65;;;2.10;99.90;;;;;;7402347;19;19926;-73
2023/01/24 05:53:46;;;;;;;11.52;6.53;;;3.10;99.90;;;;;;7403688;19;19923;-75
2023/01/24 05:56:16;;;;;;;11.75;6.28;;;3.00;99.90;;;;;;7400369;19;19922;-73
2023/01/24 05:58:47;;;;;;;11.15;6.38;;;3.00;99.90;;;;;;7405777;19;19936;-73
2023/01/24 06:01:18;;;;;;;8.63;5.93;;;3.20;99.90;;;;;;7400734;19;20348;-73
2023/01/24 06:03:52;;;;;;;10.65;5.78;;;3.10;99.90;;;;;;7402797;19;19922;-73
2023/01/24 06:06:23;;;;;;;10.50;5.95;;;2.20;99.90;;;;;;7402418;19;20333;-73
2023/01/24 06:08:53;;;;;;;10.88;5.55;;;4.20;99.90;;;;;;7404232;19;19926;-73
2023/01/24 06:11:23;;;;;;;9.50;5.25;;;3.10;99.90;;;;;;7403301;19;19936;-72
2023/01/24 06:13:53;;;;;;;9.40;5.10;;;3.20;99.90;;;;;;7401456;19;19921;-73
2023/01/24 06:16:23;;;;;;;10.45;5.78;;;2.90;99.90;;;;;;7401641;19;19919;-72
2023/01/24 06:18:56;;;;;;;9.68;5.75;;;3.20;99.90;;;;;;7402852;19;19922;-72
2023/01/24 06:21:44;;;;;;;11.65;5.45;;;3.60;99.90;;;;;;7401093;19;20018;-72
2023/01/24 06:24:22;;;;;;;8.90;5.05;;;2.80;99.90;;;;;;7402038;19;19922;-73
2023/01/24 06:26:52;;;;;;;11.15;5.72;;;3.10;99.90;;;;;;7404899;19;20355;-72
2023/01/24 06:29:23;;;;;;;9.93;5.53;;;3.00;99.90;;;;;;7401368;19;19911;-73
2023/01/24 06:32:08;;;;;;;12.68;5.40;;;3.00;99.90;;;;;;7401187;19;20234;-73
2023/01/24 06:35:04;;;;;;;10.80;4.95;;;3.90;99.90;;;;;;7404442;19;19922;-73
2023/01/24 06:37:38;;;;;;;11.05;5.20;;;3.50;99.90;;;;;;7401130;19;19978;-72
2023/01/24 06:40:15;;;;;;;8.27;4.80;;;2.00;99.90;;;;;;7400844;19;19915;-73
2023/01/24 06:42:45;;;;;;;10.98;5.60;;;2.90;99.90;;;;;;7402364;19;19925;-73
2023/01/24 06:45:15;;;;;;;8.43;5.22;;;3.20;99.90;;;;;;7408532;19;20253;-73
2023/01/24 06:47:44;;;;;;;10.38;5.78;;;3.20;99.90;;;;;;7411132;19;19915;-73
2023/01/24 06:50:19;;;;;;;10.00;4.80;;;3.00;99.90;;;;;;7407647;19;19922;-73
2023/01/24 06:52:48;;;;;;;8.98;4.82;;;3.60;99.90;;;;;;7409469;19;19917;-73
2023/01/24 06:55:18;;;;;;;9.77;4.63;;;3.10;99.90;;;;;;7407471;19;19914;-73
2023/01/24 06:57:47;;;;;;;9.43;5.25;;;2.90;99.90;;;;;;7409162;19;19924;-73
2023/01/24 07:00:17;;;;;;;12.07;5.47;;;2.90;99.90;;;;;;7407625;19;19923;-73
2023/01/24 07:02:46;;;;;;;7.60;4.63;;;3.60;99.90;;;;;;7407668;19;19927;-73
2023/01/24 07:05:18;;;;;;;11.55;4.82;;;3.00;99.90;;;;;;7408811;19;19929;-72
2023/01/24 07:07:47;;;;;;;12.23;6.00;;;2.90;99.90;;;;;;7407098;19;19974;-73
2023/01/24 07:10:16;;;;;;;11.68;5.20;;;3.10;99.90;;;;;;7406742;19;19978;-73
2023/01/24 07:12:45;;;;;;;8.02;4.72;;;2.90;99.90;;;;;;7406282;19;19947;-73
2023/01/24 07:15:14;;;;;;;11.05;4.85;;;4.20;99.90;;;;;;7408508;19;19918;-73
2023/01/24 07:17:44;;;;;;;11.15;4.75;;;2.90;99.90;;;;;;7406548;19;20430;-73
2023/01/24 07:20:17;;;;;;;8.45;5.05;;;2.90;99.90;;;;;;7410880;19;20268;-73
2023/01/24 07:22:47;;;;;;;8.60;4.80;;;2.90;99.90;;;;;;7407879;19;20010;-73
2023/01/24 07:25:19;;;;;;;9.23;5.07;;;2.90;99.90;;;;;;7406848;19;19925;-72
2023/01/24 07:27:49;;;;;;;8.68;4.53;;;3.80;99.90;;;;;;7406956;19;19923;-74
2023/01/24 07:30:18;;;;;;;8.75;4.35;;;3.00;99.90;;;;;;7405999;19;19938;-73
2023/01/24 07:32:48;;;;;;;9.63;4.32;;;2.80;99.90;;;;;;7408379;19;19922;-73
2023/01/24 07:35:20;;;;;;;8.18;4.20;;;3.40;99.90;;;;;;7407233;19;19946;-72
2023/01/24 07:37:48;;;;;;;9.65;5.13;;;2.90;99.90;;;;;;7406304;19;19918;-73
2023/01/24 07:40:18;;;;;;;9.23;4.40;;;3.00;99.90;;;;;;7406074;19;19930;-74
2023/01/24 07:42:47;;;;;;;8.35;4.93;;;2.90;99.90;;;;;;7408462;19;20405;-73
2023/01/24 07:45:16;;;;;;;9.52;5.20;;;3.00;99.90;;;;;;7407010;19;19933;-73
2023/01/24 07:47:44;;;;;;;9.60;4.57;;;3.00;99.90;;;;;;7408670;19;19922;-72
2023/01/24 07:50:13;;;;;;;10.68;5.07;;;3.00;99.90;;;;;;7417004;19;19970;-73
2023/01/24 07:52:45;;;;;;;9.88;4.15;;;3.00;99.90;;;;;;7410379;19;20340;-73
2023/01/24 07:55:14;;;;;;;7.45;4.65;;;3.30;99.90;;;;;;7404084;19;20271;-73
2023/01/24 07:57:43;;;;;;;9.38;4.35;;;2.90;99.90;;;;;;7405717;19;19917;-73
2023/01/24 08:00:13;;;;;;;8.23;4.70;;;2.70;99.90;;;;;;7405516;19;20279;-73
2023/01/24 08:02:42;;;;;;;8.02;4.43;;;3.50;99.90;;;;;;7408345;19;19923;-73
2023/01/24 08:05:11;;;;;;;7.57;4.55;;;2.90;99.90;;;;;;7405152;19;19925;-73
2023/01/24 08:07:40;;;;;;;8.80;4.85;;;2.00;99.90;;;;;;7405748;19;19914;-73
2023/01/24 08:10:13;;;;;;;8.77;4.22;;;2.80;99.90;;;;;;7404077;19;19930;-73
2023/01/24 08:12:44;;;;;;;8.30;4.88;;;2.90;99.90;;;;;;7407613;19;19925;-73
2023/01/24 08:15:13;;;;;;;8.85;4.40;;;2.90;99.90;;;;;;7404862;19;19907;-73
2023/01/24 08:17:42;;;;;;;10.18;4.68;;;2.10;99.90;;;;;;7409214;19;20348;-73
2023/01/24 08:20:13;;;;;;;9.70;4.78;;;3.50;99.90;;;;;;7406282;19;19918;-73
2023/01/24 08:22:42;;;;;;;6.88;4.18;;;2.90;99.90;;;;;;7405233;19;20269;-73
2023/01/24 08:25:14;;;;;;;9.73;4.82;;;3.00;99.90;;;;;;7402892;19;19968;-75
2023/01/24 08:27:43;;;;;;;7.93;4.28;;;2.00;99.90;;;;;;7408872;19;19911;-75
2023/01/24 08:30:13;;;;;;;9.75;4.95;;;3.10;99.90;;;;;;7396561;19;19922;-77
2023/01/24 08:32:42;;;;;;;8.00;4.57;;;2.90;99.90;;;;;;7404669;19;19966;-75
2023/01/24 08:35:12;;;;;;;7.70;4.40;;;3.20;99.90;;;;;;7406286;19;19929;-75
2023/01/24 08:37:41;;;;;;;7.97;4.60;;;3.30;99.90;;;;;;7406490;19;19926;-79
2023/01/24 08:40:14;;;;;;;7.57;4.70;;;3.00;99.90;;;;;;7381466;19;19922;-79
2023/01/24 08:42:43;;;;;;;9.55;4.68;;;3.40;99.90;;;;;;7381206;19;19914;-80
2023/01/24 08:45:12;;;;;;;8.68;4.68;;;2.70;99.90;;;;;;7383600;19;19940;-81
2023/01/24 08:47:41;;;;;;;8.95;5.10;;;2.90;99.90;;;;;;7401353;19;19915;-79
2023/01/24 08:50:16;;;;;;;8.25;5.10;;;2.50;99.90;;;;;;7387620;19;19914;-81
2023/01/24 08:52:44;;;;;;;8.35;4.53;;;2.90;99.90;;;;;;7407758;19;20341;-83
2023/01/24 08:55:16;;;;;;;10.18;5.18;;;2.90;99.90;;;;;;7405522;19;19966;-83
2023/01/24 08:57:45;;;;;;;9.05;4.70;;;2.90;99.90;;;;;;7396610;19;19921;-84
2023/01/24 09:00:15;;;;;;;9.45;4.95;;;3.10;99.90;;;;;;7404196;19;19945;-84
2023/01/24 09:02:44;;;;;;;10.07;4.88;;;3.00;99.90;;;;;;7405196;19;20404;-84
2023/01/24 09:05:14;;;;;;;8.13;4.32;;;2.70;99.90;;;;;;7402805;19;20343;-84
2023/01/24 09:07:44;;;;;;;8.35;5.45;;;3.30;99.90;;;;;;7402851;19;20328;-84
2023/01/24 09:10:16;;;;;;;7.95;4.90;;;3.30;99.90;;;;;;7404278;19;20302;-84
2023/01/24 09:12:44;;;;;;;;;;;3.10;99.90;;;;;;7408474;19;19914;-85
2023/01/24 09:15:14;;;;;;;8.07;4.53;;;3.30;99.90;;;;;;7404267;19;19921;-84
2023/01/24 09:17:44;;;;;;;10.93;5.38;;;3.00;99.90;;;;;;7400285;19;19931;-86
2023/01/24 09:20:14;;;;;;;8.98;4.97;;;3.70;99.90;;;;;;7396709;19;20377;-85
2023/01/24 09:22:43;;;;;;;9.82;4.85;;;3.40;99.90;;;;;;7404290;19;19918;-85
2023/01/24 09:25:12;;;;;;;9.75;5.35;;;3.80;99.90;;;;;;7404837;19;20366;-86
2023/01/24 09:27:43;;;;;;;9.80;5.40;;;2.40;99.90;;;;;;7402541;19;19927;-84
2023/01/24 09:30:14;;;;;;;10.48;5.85;;;3.90;99.90;;;;;;7405492;19;19932;-85
2023/01/24 09:32:46;;;;;;;11.18;5.10;;;3.10;99.90;;;;;;7405586;19;19978;-85
2023/01/24 09:35:15;;;;;;;9.05;5.18;;;3.00;99.90;;;;;;7396336;19;19970;-85
2023/01/24 09:37:44;;;;;;;8.40;4.90;;;5.10;99.90;;;;;;7398934;19;19918;-85
2023/01/24 09:40:23;;;;;;;11.35;5.20;;;3.10;99.90;;;;;;7402946;19;19965;-84
2023/01/24 09:43:03;;;;;;;9.65;5.13;;;3.80;99.90;;;;;;7404468;19;19937;-86
2023/01/24 09:45:37;;;;;;;9.75;5.65;;;3.20;99.90;;;;;;7398057;19;19922;-85
2023/01/24 09:48:09;;;;;;;9.48;5.45;;;4.00;99.90;;;;;;7404105;19;19922;-85
2023/01/24 09:50:41;;;;;;;;;;;3.00;99.90;;;;;;7402378;19;19915;-85
2023/01/24 09:53:18;;;;;;;12.00;6.20;;;3.10;99.90;;;;;;7404851;19;19950;-85
2023/01/24 09:55:47;;;;;;;12.25;5.15;;;4.00;99.90;;;;;;7404157;19;19928;-84
2023/01/24 09:58:31;;;;;;;9.60;5.28;;;3.00;99.90;;;;;;7404575;19;19919;-84
2023/01/24 10:01:05;;;;;;;10.27;6.00;;;3.20;99.90;;;;;;7406385;19;19930;-85
2023/01/24 10:03:37;;;;;;;10.98;6.07;;;4.20;99.90;;;;;;7409785;19;19914;-85
2023/01/24 10:06:15;;;;;;;11.15;6.90;;;3.20;99.90;;;;;;7402771;19;19927;-85
2023/01/24 10:08:53;;;;;;;10.52;5.35;;;3.80;99.90;;;;;;7402899;19;19947;-85
2023/01/24 10:11:24;;;;;;;;;;;3.30;99.90;;;;;;7404792;19;19918;-85
2023/01/24 10:14:12;;;;;;;11.18;6.38;;;3.20;99.90;;;;;;7406161;19;20255;-85
2023/01/24 10:17:02;;;;;;;11.65;6.78;;;3.30;99.90;;;;;;7405387;19;19943;-84
2023/01/24 10:19:53;;;;;;;13.63;7.05;;;4.20;99.90;;;;;;7414898;19;20608;-85
2023/01/24 10:22:38;;;;;;;10.73;6.47;;;3.20;99.90;;;;;;7409551;19;19918;-85
2023/01/24 10:25:23;;;;;;;12.35;6.82;;;3.20;99.90;;;;;;7411606;19;20387;-84
2023/01/24 10:27:57;;;;;;;13.23;6.57;;;3.70;99.90;;;;;;7407588;19;19918;-85
2023/01/24 10:30:37;;;;;;;11.07;6.80;;;3.60;99.90;;;;;;7414067;19;19930;-85
2023/01/24 10:33:13;;;;;;;14.48;6.05;;;3.10;99.90;;;;;;7411470;19;19922;-87
2023/01/24 10:35:56;;;;;;;11.93;6.65;;;4.00;99.90;;;;;;7408174;19;19921;-86
2023/01/24 10:38:25;;;;;;;11.30;6.63;;;3.30;99.90;;;;;;7410731;19;19915;-86
2023/01/24 10:40:56;;;;;;;10.90;6.05;;;3.20;99.90;;;;;;7409519;19;19966;-84
2023/01/24 10:43:28;;;;;;;10.65;6.57;;;3.20;99.90;;;;;;7411703;19;20355;-85
2023/01/24 10:46:11;;;;;;;;;;;3.80;99.90;;;;;;7409605;19;20666;-85
2023/01/24 10:48:45;;;;;;;12.30;6.55;;;3.10;99.90;;;;;;7406374;19;20253;-86
2023/01/24 10:51:17;;;;;;;13.30;6.40;;;3.30;99.90;;;;;;7407384;19;19921;-85
2023/01/24 10:53:46;;;;;;;14.07;7.70;;;2.80;99.90;;;;;;7410355;19;19984;-84
2023/01/24 10:56:22;;;;;;;11.60;6.53;;;3.20;99.90;;;;;;7408549;19;19926;-85
2023/01/24 10:59:00;;;;;;;10.75;6.32;;;3.50;99.90;;;;;;7415519;19;19919;-85
2023/01/24 11:01:38;;;;;;;;;;;3.30;99.90;;;;;;7428784;19;19925;-85
2023/01/24 11:04:24;;;;;;;13.00;6.50;;;3.40;99.90;;;;;;7424334;19;20336;-84
2023/01/24 11:06:53;;;;;;;11.40;6.07;;;3.30;99.90;;;;;;7411983;19;19925;-86
2023/01/24 11:09:24;;;;;;;11.60;6.47;;;3.50;99.90;;;;;;7418897;19;19922;-85
2023/01/24 11:11:58;;;;;;;12.13;6.50;;;3.40;99.90;;;;;;7416804;19;19919;-86
2023/01/24 11:14:30;;;;;;;12.52;6.53;;;3.90;99.90;;;;;;7400383;19;19923;-86
2023/01/24 11:17:02;;;;;;;12.40;6.15;;;3.40;99.90;;;;;;7410333;19;19922;-88
2023/01/24 11:19:33;;;;;;;14.30;7.32;;;3.60;99.90;;;;;;7407231;19;19911;-86
2023/01/24 11:22:04;;;;;;;15.65;8.15;;;3.90;99.90;;;;;;7411986;19;19907;-86
2023/01/24 11:24:33;;;;;;;12.88;6.22;;;3.90;99.90;;;;;;7412563;19;19923;-86
2023/01/24 11:27:06;;;;;;;12.43;6.90;;;3.40;99.90;;;;;;7405234;19;19990;-76
2023/01/24 11:29:36;;;;;;;12.70;6.63;;;2.60;99.90;;;;;;7404548;19;19933;-78
2023/01/24 11:32:32;;;;;;;14.20;6.65;;;4.30;99.90;;;;;;7409039;19;19922;-79
2023/01/24 11:35:05;;;;;;;13.65;6.53;;;4.40;99.90;;;;;;7404942;19;19910;-77
2023/01/24 11:37:54;;;;;;;14.55;7.70;;;4.00;99.90;;;;;;7406875;19;19970;-77
2023/01/24 11:40:34;;;;;;;13.68;7.13;;;3.40;99.90;;;;;;7404938;19;19929;-76
2023/01/24 11:43:23;;;;;;;12.50;7.03;;;3.60;99.90;;;;;;7405227;19;19919;-77
2023/01/24 11:46:15;;;;;;;15.70;7.65;;;3.60;99.90;;;;;;7404118;19;19914;-77
2023/01/24 11:48:54;;;;;;;14.07;7.13;;;4.00;99.90;;;;;;7406296;19;20069;-79
2023/01/24 11:51:38;;;;;;;12.60;6.57;;;4.10;99.90;;;;;;7405686;19;19963;-77
2023/01/24 11:54:31;;;;;;;12.70;7.03;;;4.10;99.90;;;;;;7401822;19;19931;-78
2023/01/24 11:57:04;;;;;;;12.05;6.95;;;3.50;99.90;;;;;;7405240;19;19925;-82
2023/01/24 11:59:48;;;;;;;12.68;6.72;;;2.60;99.90;;;;;;7407728;19;19958;-82
2023/01/24 12:02:40;;;;;;;13.15;6.20;;;3.50;99.90;;;;;;7401934;19;19933;-87
2023/01/24 12:05:26;;;;;;;12.05;7.47;;;4.20;99.90;;;;;;7403424;19;20281;-85
2023/01/24 12:08:04;;;;;;;12.10;6.57;;;3.80;99.90;;;;;;7405553;19;19915;-86
2023/01/24 12:10:39;;;;;;;;;;;3.70;99.90;;;;;;7408733;19;19943;-85
2023/01/24 12:13:18;;;;;;;12.68;7.10;;;3.50;99.90;;;;;;7399185;19;19918;-85
2023/01/24 12:15:58;;;;;;;13.75;7.15;;;3.50;99.90;;;;;;7397543;19;19925;-86
2023/01/24 12:18:40;;;;;;;14.50;7.57;;;3.60;99.90;;;;;;7406457;19;19914;-86
2023/01/24 12:21:13;;;;;;;15.98;7.40;;;3.70;99.90;;;;;;7406398;19;19937;-85
2023/01/24 12:23:52;;;;;;;13.88;7.47;;;3.60;99.90;;;;;;7404110;19;19918;-80
2023/01/24 12:26:24;;;;;;;12.90;6.85;;;4.30;99.90;;;;;;7405660;19;19941;-81
2023/01/24 12:29:02;;;;;;;16.52;7.90;;;4.50;99.90;;;;;;7402519;19;19911;-83
2023/01/24 12:31:41;;;;;;;14.40;7.72;;;3.40;99.90;;;;;;7403757;19;20340;-87
2023/01/24 12:34:29;;;;;;;15.15;8.13;;;3.50;99.90;;;;;;7407545;19;19935;-75
2023/01/24 12:37:05;;;;;;;13.07;6.90;;;4.20;99.90;;;;;;7403642;19;19923;-75
2023/01/24 12:39:43;;;;;;;16.95;8.13;;;3.50;99.90;;;;;;7407516;19;19918;-79
2023/01/24 12:42:19;;;;;;;14.15;7.53;;;3.40;99.90;;;;;;7414033;19;19929;-75
2023/01/24 12:44:53;;;;;;;14.40;7.72;;;3.40;99.90;;;;;;7414725;19;19932;-77
2023/01/24 12:47:37;;;;;;;14.57;8.18;;;3.40;99.90;;;;;;7410232;19;20386;-78
2023/01/24 12:50:23;;;;;;;16.27;8.57;;;3.20;99.90;;;;;;7414631;19;19927;-85
2023/01/24 12:53:07;;;;;;;15.55;8.52;;;4.10;99.90;;;;;;7408165;19;19927;-78
2023/01/24 12:55:45;;;;;;;15.82;7.70;;;3.50;99.90;;;;;;7404904;19;19950;-78
2023/01/24 12:58:20;;;;;;;13.38;7.18;;;4.00;99.90;;;;;;7404783;19;20375;-78
2023/01/24 13:01:00;;;;;;;17.05;8.57;;;4.30;99.90;;;;;;7404626;19;19923;-77
2023/01/24 13:04:03;;;;;;;14.55;8.07;;;3.80;99.90;;;;;;7403956;19;19932;-77
2023/01/24 13:06:45;;;;;;;16.65;9.65;;;3.40;99.90;;;;;;7403409;19;19935;-77
2023/01/24 13:09:25;;;;;;;14.90;7.38;;;2.80;99.90;;;;;;7406606;19;19925;-81
2023/01/24 13:11:58;;;;;;;15.25;7.97;;;3.40;99.90;;;;;;7403377;19;19919;-77
2023/01/24 13:14:32;;;;;;;15.90;7.85;;;3.30;99.90;;;;;;7405014;19;19922;-80
2023/01/24 13:17:18;;;;;;;13.50;7.10;;;4.10;99.90;;;;;;7402199;19;19926;-84
2023/01/24 13:20:03;;;;;;;13.65;7.70;;;3.80;99.90;;;;;;7404611;19;19965;-80
2023/01/24 13:22:47;;;;;;;15.35;7.82;;;3.50;99.90;;;;;;7402819;19;19925;-80
2023/01/24 13:25:37;;;;;;;12.95;7.03;;;3.70;99.90;;;;;;7406770;19;20352;-83
2023/01/24 13:28:16;;;;;;;15.75;7.40;;;3.40;99.90;;;;;;7403954;19;19923;-83
2023/01/24 13:30:51;;;;;;;15.45;8.07;;;3.40;99.90;;;;;;7404892;19;19922;-83
2023/01/24 13:33:23;;;;;;;15.82;8.60;;;2.50;99.90;;;;;;7411289;19;19938;-82
2023/01/24 13:35:53;;;;;;;;;;;3.30;99.90;;;;;;7418810;19;19918;-82
2023/01/24 13:38:26;;;;;;;15.85;8.38;;;3.70;99.90;;;;;;7406722;19;19922;-83
2023/01/24 13:41:05;;;;;;;16.83;8.65;;;3.30;99.90;;;;;;7409226;19;19921;-83
2023/01/24 13:43:57;;;;;;;13.13;7.20;;;3.30;99.90;;;;;;7403650;19;20263;-83
2023/01/24 13:46:56;;;;;;;15.10;8.38;;;3.10;99.90;;;;;;7403195;19;19922;-83
2023/01/24 13:49:37;;;;;;;16.25;7.90;;;3.40;99.90;;;;;;7402359;19;19918;-83
2023/01/24 13:52:07;;;;;;;14.32;7.60;;;2.60;99.90;;;;;;7402108;19;19915;-82
2023/01/24 13:54:40;;;;;;;13.38;6.70;;;3.10;99.90;;;;;;7403262;19;19922;-83
2023/01/24 13:57:23;;;;;;;16.05;8.00;;;3.20;99.90;;;;;;7401142;19;19922;-82